Time;durP1;ratioP1;P1;durP2;ratioP2;P2;SDS_P1;SDS_P2;PMS_P1;PMS_P2;Temp;Humidity;BMP_temperature;BMP_pressure;BME280_temperature;BME280_humidity;BME280_pressure;Samples;Min_cycle;Max_cycle;Signal;HPM_P1;HPM_P2
2022/04/21 00:00:45;;;;;;;;;;;10.10;90.40;;;;;;5052215;28;37881;-54
2022/04/21 00:03:13;;;;;;;;;;;10.10;90.40;;;;;;5054550;28;38806;-54
2022/04/21 00:05:40;;;;;;;;;;;10.10;90.40;;;;;;5052920;28;37258;-54
2022/04/21 00:08:07;;;;;;;;;;;10.00;90.60;;;;;;5055482;28;37442;-54
2022/04/21 00:10:35;;;;;;;;;;;9.90;90.80;;;;;;5053492;28;39100;-54
2022/04/21 00:13:02;;;;;;;;;;;10.00;91.30;;;;;;5052729;28;39222;-61
2022/04/21 00:15:30;;;;;;;;;;;10.00;91.50;;;;;;5052160;28;38628;-62
2022/04/21 00:18:01;;;;;;;;;;;10.00;91.60;;;;;;5054575;28;37788;-62
2022/04/21 00:20:31;;;;;;;;;;;10.00;91.60;;;;;;5052776;28;36558;-62
2022/04/21 00:25:43;;;;;;;;;;;10.00;91.40;;;;;;5054238;28;37468;-62
2022/04/21 00:28:10;;;;;;;;;;;10.10;91.20;;;;;;5053136;28;34711;-62
2022/04/21 00:30:37;;;;;;;;;;;10.10;91.20;;;;;;5052852;28;36168;-62
2022/04/21 00:33:05;;;;;;;;;;;10.00;91.10;;;;;;5047456;28;38067;-54
2022/04/21 00:35:32;;;;;;;;;;;10.00;91.20;;;;;;5049925;28;39369;-54
2022/04/21 00:37:59;;;;;;;;;;;10.00;91.40;;;;;;5052531;28;36829;-55
2022/04/21 00:40:29;;;;;;;;;;;10.00;91.60;;;;;;5052584;28;37432;-54
2022/04/21 00:42:58;;;;;;;;;;;10.00;91.60;;;;;;5051395;28;37330;-54
2022/04/21 00:45:25;;;;;;;;;;;10.00;91.70;;;;;;5052062;28;38958;-54
2022/04/21 00:47:53;;;;;;;;;;;10.00;92.10;;;;;;5052731;28;35742;-54
2022/04/21 00:50:22;;;;;;;;;;;9.90;91.80;;;;;;5049018;28;37420;-53
2022/04/21 00:52:49;;;;;;;;;;;9.70;91.50;;;;;;5051204;28;36877;-54
2022/04/21 00:55:17;;;;;;;;;;;9.70;91.20;;;;;;5048548;28;37756;-54
2022/04/21 00:57:44;;;;;;;;;;;9.60;91.30;;;;;;5050794;28;37374;-53
2022/04/21 01:00:13;;;;;;;;;;;9.50;91.90;;;;;;5052665;28;39149;-55
2022/04/21 01:02:56;;;;;;;;;;;9.40;92.10;;;;;;5052389;28;36446;-54
2022/04/21 01:05:30;;;;;;;;;;;9.40;92.20;;;;;;5051785;28;37638;-54
2022/04/21 01:07:58;;;;;;;;;;;9.30;92.40;;;;;;5052017;28;37176;-54
2022/04/21 01:10:26;;;;;;;;;;;9.20;92.70;;;;;;5051912;28;37331;-54
2022/04/21 01:12:53;;;;;;;;;;;9.20;93.00;;;;;;5053988;28;37857;-54
2022/04/21 01:15:22;;;;;;;;;;;9.10;93.40;;;;;;5051620;28;36056;-54
2022/04/21 01:17:49;;;;;;;;;;;9.20;93.50;;;;;;5050050;28;35665;-54
2022/04/21 01:20:19;;;;;;;;;;;9.20;93.70;;;;;;5054046;28;36231;-55
2022/04/21 01:22:47;;;;;;;;;;;9.20;93.70;;;;;;5054049;28;36533;-55
2022/04/21 01:25:14;;;;;;;;;;;9.10;93.70;;;;;;5051718;28;38509;-54
2022/04/21 01:27:41;;;;;;;;;;;9.00;93.80;;;;;;5050780;28;35542;-55
2022/04/21 01:30:09;;;;;;;;;;;9.00;93.90;;;;;;5050861;28;37794;-54
2022/04/21 01:32:37;;;;;;;;;;;8.90;93.80;;;;;;5051611;28;37780;-54
2022/04/21 01:35:08;;;;;;;;;;;8.90;94.00;;;;;;5051018;28;37837;-54
2022/04/21 01:43:06;;;;;;;;;;;8.70;94.60;;;;;;5050163;28;39379;-54
2022/04/21 01:45:33;;;;;;;;;;;8.70;94.70;;;;;;5052501;28;36470;-54
2022/04/21 01:48:01;;;;;;;;;;;8.70;94.70;;;;;;5052104;28;37058;-54
2022/04/21 01:50:28;;;;;;;;;;;8.70;94.90;;;;;;5051811;28;36120;-54
2022/04/21 01:52:57;;;;;;;;;;;8.60;95.00;;;;;;5051767;28;39755;-54
2022/04/21 01:55:25;;;;;;;;;;;8.70;95.30;;;;;;5051711;28;38048;-54
2022/04/21 01:57:52;;;;;;;;;;;8.70;95.40;;;;;;5050292;28;37041;-54
2022/04/21 02:00:19;;;;;;;;;;;8.70;95.50;;;;;;5052361;28;37731;-54
2022/04/21 02:02:46;;;;;;;;;;;8.70;95.60;;;;;;5052906;28;38166;-54
2022/04/21 02:05:13;;;;;;;;;;;8.70;95.70;;;;;;5052522;28;38969;-54
2022/04/21 02:07:44;;;;;;;;;;;8.80;96.30;;;;;;5051286;28;36754;-54
2022/04/21 02:10:12;;;;;;;;;;;8.90;96.60;;;;;;5051958;28;36215;-54
2022/04/21 02:12:39;;;;;;;;;;;9.00;96.40;;;;;;5052189;28;39765;-54
2022/04/21 02:15:07;;;;;;;;;;;9.00;96.50;;;;;;5051214;28;38596;-55
2022/04/21 02:17:35;;;;;;;;;;;9.00;96.50;;;;;;5052232;28;35599;-55
2022/04/21 02:20:02;;;;;;;;;;;9.10;96.40;;;;;;5052020;28;37064;-54
2022/04/21 02:22:29;;;;;;;;;;;9.10;96.10;;;;;;5051263;28;39057;-62
2022/04/21 02:24:56;;;;;;;;;;;9.10;95.70;;;;;;5052282;28;37492;-62
2022/04/21 02:27:24;;;;;;;;;;;9.10;95.60;;;;;;5051540;28;37257;-61
2022/04/21 02:29:52;;;;;;;;;;;9.00;95.30;;;;;;5050664;28;36309;-62
2022/04/21 02:32:19;;;;;;;;;;;9.00;95.10;;;;;;5051430;28;37363;-62
2022/04/21 02:34:46;;;;;;;;;;;9.00;95.10;;;;;;5047089;28;37548;-61
2022/04/21 02:37:14;;;;;;;;;;;9.00;95.20;;;;;;5049130;28;37911;-62
2022/04/21 02:39:41;;;;;;;;;;;9.00;95.10;;;;;;5051172;28;37241;-62
2022/04/21 02:42:09;;;;;;;;;;;8.90;95.00;;;;;;5047361;28;37549;-62
2022/04/21 02:44:38;;;;;;;;;;;8.90;94.70;;;;;;5050809;28;37481;-62
2022/04/21 02:47:05;;;;;;;;;;;8.80;94.70;;;;;;5049102;28;36876;-62
2022/04/21 02:49:33;;;;;;;;;;;8.80;94.70;;;;;;5048226;28;35159;-62
2022/04/21 02:52:00;;;;;;;;;;;8.80;94.90;;;;;;5049760;28;38796;-62
2022/04/21 02:57:24;;;;;;;;;;;8.80;94.90;;;;;;5053471;28;39189;-61
2022/04/21 02:59:53;;;;;;;;;;;8.80;94.60;;;;;;5052472;28;36932;-62
2022/04/21 03:02:21;;;;;;;;;;;8.80;94.10;;;;;;5055377;28;40516;-61
2022/04/21 03:04:48;;;;;;;;;;;8.80;94.10;;;;;;5054867;28;36227;-61
2022/04/21 03:07:16;;;;;;;;;;;8.80;94.40;;;;;;5054196;28;37818;-62
2022/04/21 03:09:43;;;;;;;;;;;8.80;94.40;;;;;;5054210;28;36131;-62
2022/04/21 03:12:11;;;;;;;;;;;8.80;95.10;;;;;;5052892;28;37508;-61
2022/04/21 03:14:38;;;;;;;;;;;8.80;95.20;;;;;;5054347;28;37549;-62
2022/04/21 03:17:07;;;;;;;;;;;8.90;95.20;;;;;;5054625;28;36695;-62
2022/04/21 03:19:35;;;;;;;;;;;9.00;95.00;;;;;;5054645;28;36567;-61
2022/04/21 03:24:47;;;;;;;;;;;9.10;94.40;;;;;;5054463;28;40139;-61
2022/04/21 03:27:14;;;;;;;;;;;9.10;94.40;;;;;;5053993;28;36910;-61
2022/04/21 03:29:41;;;;;;;;;;;9.10;94.20;;;;;;5055024;28;36480;-60
2022/04/21 03:32:11;;;;;;;;;;;9.10;94.10;;;;;;5053034;28;38461;-61
2022/04/21 03:34:40;;;;;;;;;;;9.20;93.90;;;;;;5054858;28;36922;-61
2022/04/21 03:37:07;;;;;;;;;;;9.20;93.70;;;;;;5053728;28;38318;-62
2022/04/21 03:39:34;;;;;;;;;;;9.30;93.60;;;;;;5052264;28;36436;-62
2022/04/21 03:42:01;;;;;;;;;;;9.30;93.50;;;;;;5051487;28;38368;-61
2022/04/21 03:44:29;;;;;;;;;;;9.30;93.30;;;;;;5052978;28;37883;-62
2022/04/21 03:46:57;;;;;;;;;;;9.30;93.30;;;;;;5054568;28;36900;-61
2022/04/21 03:49:27;;;;;;;;;;;9.30;93.20;;;;;;5050164;28;36139;-54
2022/04/21 03:51:54;;;;;;;;;;;9.30;93.30;;;;;;5056061;28;37595;-55
2022/04/21 03:54:22;;;;;;;;;;;9.30;93.20;;;;;;5053249;28;37649;-54
2022/04/21 03:56:49;;;;;;;;;;;9.20;93.30;;;;;;5053392;28;37595;-55
2022/04/21 03:59:16;;;;;;;;;;;9.20;93.40;;;;;;5054029;28;38096;-62
2022/04/21 04:01:44;;;;;;;;;;;9.20;93.60;;;;;;5052913;28;39235;-63
2022/04/21 04:04:11;;;;;;;;;;;9.10;93.70;;;;;;5053894;28;36249;-62
2022/04/21 04:12:09;;;;;;;;;;;9.10;94.00;;;;;;5053227;28;39123;-61
2022/04/21 04:14:37;;;;;;;;;;;9.10;94.00;;;;;;5052268;28;37846;-62
2022/04/21 04:17:05;;;;;;;;;;;9.10;94.10;;;;;;5051773;28;37376;-62
2022/04/21 04:19:32;;;;;;;;;;;9.10;93.90;;;;;;5053516;28;35302;-61
2022/04/21 04:22:01;;;;;;;;;;;9.10;93.80;;;;;;5053167;28;37810;-61
2022/04/21 04:24:29;;;;;;;;;;;9.10;94.20;;;;;;5054238;28;37862;-62
2022/04/21 04:26:56;;;;;;;;;;;9.10;93.90;;;;;;5053385;28;37048;-62
2022/04/21 04:29:23;;;;;;;;;;;9.20;93.90;;;;;;5053356;28;35065;-62
2022/04/21 04:31:51;;;;;;;;;;;9.10;93.70;;;;;;5053374;28;39286;-61
2022/04/21 04:34:18;;;;;;;;;;;9.10;93.90;;;;;;5051127;28;37744;-61
2022/04/21 04:36:46;;;;;;;;;;;9.20;93.90;;;;;;5053851;28;36978;-62
2022/04/21 04:39:14;;;;;;;;;;;9.20;93.90;;;;;;5053237;28;37711;-61
2022/04/21 04:44:26;;;;;;;;;;;9.30;93.80;;;;;;5051569;28;37566;-62
2022/04/21 04:46:52;;;;;;;;;;;9.30;93.70;;;;;;5052346;28;37484;-61
2022/04/21 04:49:19;;;;;;;;;;;9.20;93.50;;;;;;5053310;28;35829;-62
2022/04/21 04:51:46;;;;;;;;;;;9.20;93.60;;;;;;5052850;28;38448;-62
2022/04/21 04:54:15;;;;;;;;;;;9.20;93.70;;;;;;5051925;28;37629;-62
2022/04/21 04:56:43;;;;;;;;;;;9.20;93.90;;;;;;5053772;28;35707;-62
2022/04/21 04:59:10;;;;;;;;;;;9.30;94.00;;;;;;5051717;28;37302;-61
2022/04/21 05:01:40;;;;;;;;;;;9.30;94.00;;;;;;5051390;28;37580;-62
2022/04/21 05:04:08;;;;;;;;;;;9.40;94.10;;;;;;5052464;28;37672;-61
2022/04/21 05:06:36;;;;;;;;;;;9.40;94.20;;;;;;5052819;28;36288;-62
2022/04/21 05:09:04;;;;;;;;;;;9.50;94.50;;;;;;5052895;28;39335;-61
2022/04/21 05:11:33;;;;;;;;;;;9.60;94.50;;;;;;5054004;28;37483;-62
2022/04/21 05:14:00;;;;;;;;;;;9.70;94.60;;;;;;5051215;28;37417;-62
2022/04/21 05:16:29;;;;;;;;;;;9.90;94.80;;;;;;5053798;28;35630;-55
2022/04/21 05:18:59;;;;;;;;;;;10.10;94.30;;;;;;5049828;28;36565;-55
2022/04/21 05:21:30;;;;;;;;;;;10.30;93.40;;;;;;5054473;28;37349;-55
2022/04/21 05:23:58;;;;;;;;;;;10.60;93.00;;;;;;5053541;28;38768;-54
2022/04/21 05:26:25;;;;;;;;;;;10.80;91.90;;;;;;5053622;28;36676;-55
2022/04/21 05:28:55;;;;;;;;;;;11.00;91.20;;;;;;5053956;28;35090;-55
2022/04/21 05:31:21;;;;;;;;;;;11.20;90.10;;;;;;5053527;28;37582;-55
2022/04/21 05:33:48;;;;;;;;;;;11.40;87.30;;;;;;5052164;28;37171;-55
2022/04/21 05:36:16;;;;;;;;;;;11.50;86.10;;;;;;5053327;28;37650;-55
2022/04/21 05:38:43;;;;;;;;;;;11.70;84.60;;;;;;5052656;28;35887;-55
2022/04/21 05:41:13;;;;;;;;;;;11.70;84.70;;;;;;5053485;28;37666;-62
2022/04/21 05:43:41;;;;;;;;;;;11.80;83.90;;;;;;5051326;28;37942;-62
2022/04/21 05:46:10;;;;;;;;;;;11.90;84.50;;;;;;5054125;28;36777;-62
2022/04/21 05:48:38;;;;;;;;;;;12.00;83.70;;;;;;5052224;28;35133;-62
2022/04/21 05:51:05;;;;;;;;;;;12.10;83.20;;;;;;5049216;28;39644;-62
2022/04/21 05:53:36;;;;;;;;;;;12.30;82.10;;;;;;5050766;28;37740;-63
2022/04/21 05:56:04;;;;;;;;;;;12.50;81.40;;;;;;5051871;28;35697;-62
2022/04/21 05:58:31;;;;;;;;;;;12.80;81.20;;;;;;5053033;28;36810;-62
2022/04/21 06:00:58;;;;;;;;;;;12.90;80.10;;;;;;5048529;28;38350;-62
2022/04/21 06:03:27;;;;;;;;;;;13.00;81.00;;;;;;5052851;28;37297;-63
2022/04/21 06:05:54;;;;;;;;;;;13.10;80.90;;;;;;5051835;28;35543;-63
2022/04/21 06:08:21;;;;;;;;;;;13.10;80.20;;;;;;5051554;28;40457;-62
2022/04/21 06:10:48;;;;;;;;;;;13.10;80.20;;;;;;5052152;28;38956;-62
2022/04/21 06:13:16;;;;;;;;;;;13.20;81.60;;;;;;5050604;28;39561;-62
2022/04/21 06:15:43;;;;;;;;;;;13.30;81.60;;;;;;5049999;28;37750;-62
2022/04/21 06:18:11;;;;;;;;;;;13.40;81.80;;;;;;5051475;28;35097;-55
2022/04/21 06:20:40;;;;;;;;;;;13.60;80.40;;;;;;5050602;28;36769;-55
2022/04/21 06:23:07;;;;;;;;;;;13.70;79.40;;;;;;5051151;28;37404;-55
2022/04/21 06:25:36;;;;;;;;;;;13.80;80.00;;;;;;5050622;28;36960;-55
2022/04/21 06:28:05;;;;;;;;;;;13.90;79.60;;;;;;5049778;28;35417;-55
2022/04/21 06:30:32;;;;;;;;;;;14.00;80.00;;;;;;5050855;28;38235;-55
2022/04/21 06:32:59;;;;;;;;;;;14.10;74.80;;;;;;5054046;28;37789;-55
2022/04/21 06:35:27;;;;;;;;;;;14.10;75.40;;;;;;5051517;28;38403;-55
2022/04/21 06:37:55;;;;;;;;;;;14.20;75.50;;;;;;5054809;28;36382;-62
2022/04/21 06:40:23;;;;;;;;;;;14.20;70.40;;;;;;5053906;28;36780;-62
2022/04/21 06:42:50;;;;;;;;;;;14.20;69.50;;;;;;5054782;28;38075;-63
2022/04/21 06:48:09;;;;;;;;;;;14.20;67.50;;;;;;5055678;28;36151;-55
2022/04/21 06:50:36;;;;;;;;;;;14.20;68.90;;;;;;5054037;28;36398;-56
2022/04/21 06:53:08;;;;;;;;;;;14.20;62.30;;;;;;5056254;28;36947;-55
2022/04/21 06:55:35;;;;;;;;;;;14.20;65.90;;;;;;5053299;28;35756;-55
2022/04/21 06:58:02;;;;;;;;;;;14.20;66.60;;;;;;5054179;28;38737;-55
2022/04/21 07:00:29;;;;;;;;;;;14.30;69.00;;;;;;5055811;28;36486;-55
2022/04/21 07:02:57;;;;;;;;;;;14.40;68.80;;;;;;5055334;28;38825;-55
2022/04/21 07:05:25;;;;;;;;;;;14.40;66.30;;;;;;5055947;28;37113;-55
2022/04/21 07:07:52;;;;;;;;;;;14.30;63.50;;;;;;5055621;28;35152;-55
2022/04/21 07:10:21;;;;;;;;;;;14.30;65.00;;;;;;5053950;28;37224;-56
2022/04/21 07:12:48;;;;;;;;;;;14.20;62.40;;;;;;5050803;28;37620;-56
2022/04/21 07:15:16;;;;;;;;;;;14.30;65.10;;;;;;5052204;28;36979;-56
2022/04/21 07:17:43;;;;;;;;;;;14.30;65.70;;;;;;5054972;28;35116;-55
2022/04/21 07:20:11;;;;;;;;;;;14.40;66.00;;;;;;5054410;28;37579;-55
2022/04/21 07:22:38;;;;;;;;;;;14.50;66.70;;;;;;5055696;28;38784;-56
2022/04/21 07:25:07;;;;;;;;;;;14.50;63.40;;;;;;5052958;28;35689;-56
2022/04/21 07:27:36;;;;;;;;;;;14.60;64.40;;;;;;5051211;28;36045;-56
2022/04/21 07:30:03;;;;;;;;;;;14.60;62.80;;;;;;5052621;28;37428;-55
2022/04/21 07:32:30;;;;;;;;;;;14.70;61.00;;;;;;5053947;28;37522;-55
2022/04/21 07:34:57;;;;;;;;;;;14.70;60.60;;;;;;5052566;28;36608;-55
2022/04/21 07:37:26;;;;;;;;;;;14.70;62.10;;;;;;5054239;28;36721;-56
2022/04/21 07:39:53;;;;;;;;;;;14.80;62.00;;;;;;5052179;28;36543;-56
2022/04/21 07:42:21;;;;;;;;;;;14.90;61.20;;;;;;5052850;28;37648;-55
2022/04/21 07:44:50;;;;;;;;;;;14.90;58.40;;;;;;5051341;28;36718;-62
2022/04/21 07:47:17;;;;;;;;;;;15.00;60.90;;;;;;5049568;28;37914;-62
2022/04/21 07:49:48;;;;;;;;;;;15.10;63.90;;;;;;5049065;28;36563;-62
2022/04/21 07:55:10;;;;;;;;;;;15.50;61.60;;;;;;5053829;28;37577;-62
2022/04/21 07:57:37;;;;;;;;;;;15.80;59.50;;;;;;5052228;28;36124;-62
2022/04/21 08:00:06;;;;;;;;;;;15.80;57.00;;;;;;5052814;28;38217;-62
2022/04/21 08:02:33;;;;;;;;;;;15.70;58.50;;;;;;5053652;28;38091;-61
2022/04/21 08:05:00;;;;;;;;;;;15.80;57.00;;;;;;5052470;28;36564;-62
2022/04/21 08:07:27;;;;;;;;;;;15.80;59.90;;;;;;5052507;28;35919;-61
2022/04/21 08:09:54;;;;;;;;;;;15.80;57.20;;;;;;5053166;28;37966;-62
2022/04/21 08:12:21;;;;;;;;;;;15.90;57.40;;;;;;5050455;28;37708;-56
2022/04/21 08:14:48;;;;;;;;;;;15.90;57.10;;;;;;5053896;28;38133;-55
2022/04/21 08:17:17;;;;;;;;;;;16.00;55.40;;;;;;5053466;28;35610;-54
2022/04/21 08:19:44;;;;;;;;;;;16.00;54.90;;;;;;5055337;28;36576;-54
2022/04/21 08:22:11;;;;;;;;;;;16.00;53.50;;;;;;5052739;28;37380;-55
2022/04/21 08:32:54;;;;;;;;;;;16.20;54.60;;;;;;5051296;28;37571;-55
2022/04/21 08:35:21;;;;;;;;;;;16.30;53.10;;;;;;5053731;28;37672;-62
2022/04/21 08:37:50;;;;;;;;;;;16.30;51.60;;;;;;5054464;28;36196;-63
2022/04/21 08:40:18;;;;;;;;;;;16.40;52.60;;;;;;5051137;28;37546;-62
2022/04/21 08:42:45;;;;;;;;;;;16.40;51.40;;;;;;5052422;28;37134;-63
2022/04/21 08:45:14;;;;;;;;;;;16.40;53.80;;;;;;5052036;28;37338;-62
2022/04/21 08:47:43;;;;;;;;;;;16.60;54.00;;;;;;5052544;28;37521;-62
2022/04/21 08:50:14;;;;;;;;;;;16.80;52.90;;;;;;5052019;28;37632;-62
2022/04/21 08:52:42;;;;;;;;;;;16.90;52.90;;;;;;5050918;28;38457;-62
2022/04/21 08:55:10;;;;;;;;;;;17.00;52.50;;;;;;5053289;28;36676;-62
2022/04/21 08:57:37;;;;;;;;;;;17.10;54.10;;;;;;5052931;28;36207;-62
2022/04/21 09:00:05;;;;;;;;;;;17.10;51.00;;;;;;5051397;28;37398;-62
2022/04/21 09:02:36;;;;;;;;;;;17.20;50.60;;;;;;5053487;28;38135;-63
2022/04/21 09:05:03;;;;;;;;;;;17.30;50.80;;;;;;5052781;28;35543;-56
2022/04/21 09:07:32;;;;;;;;;;;17.30;49.40;;;;;;5052864;28;35874;-56
2022/04/21 09:10:05;;;;;;;;;;;17.30;49.80;;;;;;5051803;28;37404;-55
2022/04/21 09:12:33;;;;;;;;;;;17.20;50.90;;;;;;5049991;28;38793;-55
2022/04/21 09:15:05;;;;;;;;;;;17.20;51.10;;;;;;5054087;28;35678;-56
2022/04/21 09:17:37;;;;;;;;;;;17.20;49.40;;;;;;5051675;28;36338;-56
2022/04/21 09:20:05;;;;;;;;;;;17.20;51.30;;;;;;5051429;28;39324;-55
2022/04/21 09:22:34;;;;;;;;;;;17.20;50.80;;;;;;5050007;28;36022;-55
2022/04/21 09:25:01;;;;;;;;;;;17.30;51.30;;;;;;5050315;28;37592;-62
2022/04/21 09:27:38;;;;;;;;;;;17.40;52.90;;;;;;5052257;28;35159;-61
2022/04/21 09:30:05;;;;;;;;;;;17.40;53.50;;;;;;5048921;28;37985;-62
2022/04/21 09:32:32;;;;;;;;;;;17.50;50.40;;;;;;5049607;28;39004;-62
2022/04/21 09:35:00;;;;;;;;;;;17.60;50.90;;;;;;5052866;28;37775;-61
2022/04/21 09:37:27;;;;;;;;;;;17.60;53.10;;;;;;5052950;28;36472;-62
2022/04/21 09:39:56;;;;;;;;;;;17.60;55.40;;;;;;5052928;28;37762;-61
2022/04/21 09:42:23;;;;;;;;;;;17.60;59.50;;;;;;5049555;28;38182;-62
2022/04/21 09:47:35;;;;;;;;;;;17.70;57.00;;;;;;5050920;28;37300;-62
2022/04/21 09:50:11;;;;;;;;;;;17.80;54.90;;;;;;5051766;28;40609;-62
2022/04/21 09:52:38;;;;;;;;;;;17.80;57.70;;;;;;5053563;28;38803;-61
2022/04/21 09:58:05;;;;;;;;;;;17.90;54.10;;;;;;5103116;27;19935;-60
2022/04/21 10:00:33;;;;;;;;;;;17.90;54.20;;;;;;5060533;28;36276;-60
2022/04/21 10:03:01;;;;;;;;;;;17.90;53.00;;;;;;5060714;27;36530;-60
2022/04/21 10:05:29;;;;;;;;;;;18.00;52.90;;;;;;5062742;27;37189;-52
2022/04/21 10:07:56;;;;;;;;;;;18.00;52.30;;;;;;5061575;28;37365;-60
2022/04/21 10:10:26;;;;;;;;;;;18.00;52.30;;;;;;5061658;28;36121;-61
2022/04/21 10:12:54;;;;;;;;;;;18.00;51.10;;;;;;5061503;28;36911;-60
2022/04/21 10:15:24;;;;;;;;;;;18.20;53.80;;;;;;5062004;28;37381;-61
2022/04/21 10:17:51;;;;;;;;;;;18.20;51.50;;;;;;5061712;28;37367;-60
2022/04/21 10:20:21;;;;;;;;;;;18.40;54.60;;;;;;5060132;27;37356;-60
2022/04/21 10:22:49;;;;;;;;;;;18.50;54.40;;;;;;5060993;27;37587;-60
2022/04/21 10:25:16;;;;;;;;;;;18.70;52.10;;;;;;5060903;27;37529;-61
2022/04/21 10:27:45;;;;;;;;;;;18.80;51.40;;;;;;5061319;28;36807;-61
2022/04/21 10:30:14;;;;;;;;;;;18.80;50.60;;;;;;5061371;28;37685;-61
2022/04/21 10:32:49;;;;;;;;;;;18.90;48.70;;;;;;5061318;28;35092;-62
2022/04/21 10:35:20;;;;;;;;;;;18.80;49.40;;;;;;5060459;28;38775;-52
2022/04/21 10:37:47;;;;;;;;;;;18.70;49.70;;;;;;5060352;28;37029;-60
2022/04/21 10:40:21;;;;;;;;;;;18.70;51.40;;;;;;5061578;28;36001;-60
2022/04/21 10:42:59;;;;;;;;;;;18.70;52.80;;;;;;5059747;27;36340;-60
2022/04/21 10:45:27;;;;;;;;;;;18.70;49.00;;;;;;5061145;28;39084;-61
2022/04/21 10:48:05;;;;;;;;;;;18.80;50.70;;;;;;5062047;27;37321;-61
2022/04/21 10:50:33;;;;;;;;;;;18.80;52.10;;;;;;5058536;28;39680;-61
2022/04/21 10:58:47;;;;;;;;;;;19.00;50.60;;;;;;5059020;28;37388;-60
2022/04/21 11:01:15;;;;;;;;;;;18.90;49.10;;;;;;5058006;27;36595;-61
2022/04/21 11:03:44;;;;;;;;;;;18.90;49.40;;;;;;5054168;28;38918;-61
2022/04/21 11:06:12;;;;;;;;;;;18.90;45.80;;;;;;5059025;27;38978;-60
2022/04/21 11:08:39;;;;;;;;;;;18.90;51.50;;;;;;5049761;28;38155;-61
2022/04/21 11:11:09;;;;;;;;;;;19.00;49.10;;;;;;5044218;28;38779;-61
2022/04/21 11:13:43;;;;;;;;;;;19.10;51.80;;;;;;5037482;28;36153;-61
2022/04/21 11:16:10;;;;;;;;;;;19.20;48.90;;;;;;5046264;28;37770;-54
2022/04/21 11:18:37;;;;;;;;;;;19.10;49.40;;;;;;5046304;28;40250;-53
2022/04/21 11:21:31;;;;;;;;;;;19.20;49.20;;;;;;5044100;28;36798;-54
2022/04/21 11:24:03;;;;;;;;;;;19.10;50.20;;;;;;5019339;28;36965;-53
2022/04/21 11:26:30;;;;;;;;;;;19.20;49.10;;;;;;5043806;28;37809;-54
2022/04/21 11:29:03;;;;;;;;;;;19.20;50.40;;;;;;5045562;28;37404;-54
2022/04/21 11:31:30;;;;;;;;;;;19.10;48.70;;;;;;5045578;28;36539;-54
2022/04/21 11:34:00;;;;;;;;;;;19.10;49.70;;;;;;5044653;28;34819;-52
2022/04/21 11:36:34;;;;;;;;;;;19.10;49.30;;;;;;5044957;28;37630;-54
2022/04/21 11:39:05;;;;;;;;;;;19.00;48.00;;;;;;5045018;28;38329;-54
2022/04/21 11:41:33;;;;;;;;;;;18.90;48.50;;;;;;5045169;28;37137;-60
2022/04/21 11:44:00;;;;;;;;;;;18.90;48.60;;;;;;5044223;28;35200;-61
2022/04/21 11:46:28;;;;;;;;;;;18.90;49.40;;;;;;5045158;28;37583;-60
2022/04/21 11:49:00;;;;;;;;;;;18.80;48.90;;;;;;5046121;28;37756;-61
2022/04/21 11:51:28;;;;;;;;;;;18.80;49.20;;;;;;5045323;28;37679;-61
2022/04/21 11:53:55;;;;;;;;;;;18.80;49.40;;;;;;5045462;28;36370;-61
2022/04/21 11:56:23;;;;;;;;;;;18.70;49.70;;;;;;5044385;28;36407;-61
2022/04/21 11:58:50;;;;;;;;;;;18.60;49.00;;;;;;5045635;28;36960;-61
2022/04/21 12:06:49;;;;;;;;;;;18.40;49.00;;;;;;5039672;28;39199;-61
2022/04/21 12:09:18;;;;;;;;;;;18.20;49.90;;;;;;5042203;28;38598;-60
2022/04/21 12:11:49;;;;;;;;;;;18.10;50.00;;;;;;5043301;28;36771;-61
2022/04/21 12:14:19;;;;;;;;;;;18.00;52.50;;;;;;5043976;28;36422;-60
2022/04/21 12:16:47;;;;;;;;;;;17.90;51.20;;;;;;5041937;28;37072;-61
2022/04/21 12:19:18;;;;;;;;;;;17.90;52.90;;;;;;5042643;28;37050;-61
2022/04/21 12:21:46;;;;;;;;;;;17.90;52.50;;;;;;5043918;28;37661;-61
2022/04/21 12:24:17;;;;;;;;;;;17.80;52.00;;;;;;5044772;28;37783;-53
2022/04/21 12:26:49;;;;;;;;;;;17.70;52.00;;;;;;5044550;28;37958;-54
2022/04/21 12:29:16;;;;;;;;;;;17.70;52.70;;;;;;5045416;28;38394;-53
2022/04/21 12:31:51;;;;;;;;;;;17.80;54.40;;;;;;5044000;28;35318;-54
2022/04/21 12:34:21;;;;;;;;;;;17.80;51.40;;;;;;5043065;28;35283;-54
2022/04/21 12:36:52;;;;;;;;;;;17.70;50.70;;;;;;5043698;28;37891;-53
2022/04/21 12:39:20;;;;;;;;;;;17.50;54.20;;;;;;5044611;28;37457;-54
2022/04/21 12:41:49;;;;;;;;;;;17.40;56.30;;;;;;5045470;28;37450;-53
2022/04/21 12:44:17;;;;;;;;;;;17.20;54.10;;;;;;5044624;28;36591;-56
2022/04/21 12:46:56;;;;;;;;;;;17.10;55.80;;;;;;5043519;28;37658;-56
2022/04/21 12:49:23;;;;;;;;;;;17.00;54.30;;;;;;5044632;28;37506;-56
2022/04/21 12:51:50;;;;;;;;;;;17.00;54.80;;;;;;5044986;28;36796;-56
2022/04/21 12:54:24;;;;;;;;;;;17.00;55.80;;;;;;5044919;28;39446;-56
2022/04/21 12:56:55;;;;;;;;;;;17.00;57.00;;;;;;5045362;28;38799;-56
2022/04/21 12:59:22;;;;;;;;;;;17.00;56.90;;;;;;5043619;28;38072;-56
2022/04/21 13:01:49;;;;;;;;;;;17.00;58.50;;;;;;5044097;28;35449;-56
2022/04/21 13:04:16;;;;;;;;;;;17.00;57.40;;;;;;5046738;28;36299;-56
2022/04/21 13:06:44;;;;;;;;;;;17.00;58.70;;;;;;5046446;28;37184;-56
2022/04/21 13:09:11;;;;;;;;;;;17.00;58.80;;;;;;5046330;28;40419;-63
2022/04/21 13:11:38;;;;;;;;;;;17.00;56.70;;;;;;5046080;28;36565;-64
2022/04/21 13:14:06;;;;;;;;;;;17.00;57.60;;;;;;5046241;28;35832;-63
2022/04/21 13:16:34;;;;;;;;;;;16.90;59.00;;;;;;5047002;28;37582;-63
2022/04/21 13:19:01;;;;;;;;;;;16.90;60.70;;;;;;5047162;28;37537;-63
2022/04/21 13:24:21;;;;;;;;;;;16.80;60.50;;;;;;5020784;28;37852;-63
2022/04/21 13:26:48;;;;;;;;;;;16.80;60.70;;;;;;5046811;28;39403;-63
2022/04/21 13:29:16;;;;;;;;;;;16.80;60.40;;;;;;5045195;28;39298;-62
2022/04/21 13:34:27;;;;;;;;;;;16.70;60.40;;;;;;5045898;28;38063;-63
2022/04/21 13:36:55;;;;;;;;;;;16.60;61.00;;;;;;5045099;28;38135;-63
2022/04/21 13:39:22;;;;;;;;;;;16.50;62.10;;;;;;5046124;28;39229;-63
2022/04/21 13:41:52;;;;;;;;;;;16.50;61.30;;;;;;5045441;28;36571;-63
2022/04/21 13:44:20;;;;;;;;;;;16.40;62.70;;;;;;5045135;28;37392;-63
2022/04/21 13:46:48;;;;;;;;;;;16.40;63.50;;;;;;5044897;28;39231;-63
2022/04/21 13:49:15;;;;;;;;;;;16.40;63.50;;;;;;5045169;28;37303;-63
2022/04/21 13:51:42;;;;;;;;;;;16.30;64.40;;;;;;5044979;28;37612;-63
2022/04/21 13:54:10;;;;;;;;;;;16.30;64.10;;;;;;5045577;28;36320;-56
2022/04/21 13:56:37;;;;;;;;;;;16.30;62.00;;;;;;5044791;28;36528;-56
2022/04/21 13:59:04;;;;;;;;;;;16.30;63.60;;;;;;5044098;28;35990;-56
2022/04/21 14:01:33;;;;;;;;;;;16.20;63.20;;;;;;5044837;28;36590;-56
2022/04/21 14:04:00;;;;;;;;;;;16.20;65.40;;;;;;5045810;28;37267;-56
2022/04/21 14:06:27;;;;;;;;;;;16.20;65.40;;;;;;5045096;28;39709;-56
2022/04/21 14:08:54;;;;;;;;;;;16.20;65.70;;;;;;5036225;28;37709;-56
2022/04/21 14:11:22;;;;;;;;;;;16.20;64.70;;;;;;5046305;28;35809;-56
2022/04/21 14:13:50;;;;;;;;;;;16.20;64.90;;;;;;5042229;28;37371;-64
2022/04/21 14:16:17;;;;;;;;;;;16.20;65.00;;;;;;5044544;28;36174;-63
2022/04/21 14:18:46;;;;;;;;;;;16.10;64.80;;;;;;5043895;28;36345;-62
2022/04/21 14:21:14;;;;;;;;;;;16.10;66.00;;;;;;5044662;28;36623;-56
2022/04/21 14:23:41;;;;;;;;;;;16.10;66.00;;;;;;5046042;28;35004;-63
2022/04/21 14:26:09;;;;;;;;;;;16.10;64.70;;;;;;5045713;28;37455;-63
2022/04/21 14:28:38;;;;;;;;;;;16.10;65.30;;;;;;5045277;28;39537;-63
2022/04/21 14:31:05;;;;;;;;;;;16.10;66.10;;;;;;5045369;28;36732;-63
2022/04/21 14:33:33;;;;;;;;;;;16.10;65.80;;;;;;5043581;28;36011;-63
2022/04/21 14:36:03;;;;;;;;;;;16.10;66.10;;;;;;5040501;28;38339;-62
2022/04/21 14:44:05;;;;;;;;;;;16.10;66.50;;;;;;5047017;28;37170;-63
2022/04/21 14:46:32;;;;;;;;;;;16.10;67.10;;;;;;5047863;28;38397;-63
2022/04/21 14:48:59;;;;;;;;;;;16.00;67.20;;;;;;5048093;28;40651;-63
2022/04/21 14:51:29;;;;;;;;;;;16.00;67.00;;;;;;5047347;28;37835;-63
2022/04/21 14:53:56;;;;;;;;;;;16.00;67.50;;;;;;5049260;27;35731;-63
2022/04/21 14:56:29;;;;;;;;;;;16.00;68.40;;;;;;5048299;28;37908;-63
2022/04/21 14:58:56;;;;;;;;;;;16.00;68.20;;;;;;5048720;28;37040;-56
2022/04/21 15:01:23;;;;;;;;;;;16.00;69.70;;;;;;5048809;28;37596;-56
2022/04/21 15:03:50;;;;;;;;;;;16.00;70.40;;;;;;5046121;28;36265;-56
2022/04/21 15:06:17;;;;;;;;;;;16.10;71.00;;;;;;5047877;28;37767;-56
2022/04/21 15:08:46;;;;;;;;;;;16.00;70.10;;;;;;5047180;28;37479;-56
2022/04/21 15:11:13;;;;;;;;;;;16.00;70.90;;;;;;5047284;28;35645;-56
2022/04/21 15:13:40;;;;;;;;;;;16.00;70.60;;;;;;5046159;28;36193;-56
2022/04/21 15:16:07;;;;;;;;;;;16.00;71.10;;;;;;5043081;28;37460;-56
2022/04/21 15:18:34;;;;;;;;;;;15.90;71.50;;;;;;5043041;28;37627;-56
2022/04/21 15:21:02;;;;;;;;;;;15.90;71.10;;;;;;5046624;28;36692;-63
2022/04/21 15:23:29;;;;;;;;;;;15.80;71.60;;;;;;5047943;28;37962;-56
2022/04/21 15:25:58;;;;;;;;;;;15.80;72.20;;;;;;5047366;28;37961;-55
2022/04/21 15:28:25;;;;;;;;;;;15.70;71.70;;;;;;5047662;28;38197;-56
2022/04/21 15:30:52;;;;;;;;;;;15.60;72.40;;;;;;5041936;28;36903;-56